createdAt,value
2022-10-08T00:00:18.663Z,12.34
2022-10-08T00:01:23.001Z,12.33
2022-10-08T00:02:27.055Z,12.32
2022-10-08T00:03:31.467Z,12.31
2022-10-08T00:04:35.866Z,12.31
2022-10-08T00:05:40.179Z,12.30
2022-10-08T00:06:44.280Z,12.30
2022-10-08T00:07:48.592Z,12.29
2022-10-08T00:08:52.950Z,12.28
2022-10-08T00:09:57.298Z,12.28
2022-10-08T00:11:01.601Z,12.28
2022-10-08T00:12:05.851Z,12.28
2022-10-08T00:13:10.069Z,12.28
2022-10-08T00:14:14.266Z,12.28
2022-10-08T00:15:18.591Z,12.28
2022-10-08T00:16:22.872Z,12.28
2022-10-08T00:17:27.168Z,12.28
2022-10-08T00:18:31.390Z,12.28
2022-10-08T00:19:35.752Z,12.28
2022-10-08T00:20:40.081Z,12.28
2022-10-08T00:21:44.433Z,12.28
2022-10-08T00:22:49.340Z,12.29
2022-10-08T00:23:53.070Z,12.28
2022-10-08T00:24:57.394Z,12.28
2022-10-08T00:26:01.614Z,12.28
2022-10-08T00:27:05.987Z,12.29
2022-10-08T00:28:10.274Z,12.28
2022-10-08T00:29:14.470Z,12.28
2022-10-08T00:30:18.812Z,12.28
2022-10-08T00:31:23.212Z,12.27
2022-10-08T00:32:27.494Z,12.26
2022-10-08T00:33:31.807Z,12.26
2022-10-08T00:34:36.136Z,12.26
2022-10-08T00:35:40.367Z,12.27
2022-10-08T00:36:44.538Z,12.27
2022-10-08T00:37:48.963Z,12.27
2022-10-08T00:38:53.226Z,12.27
2022-10-08T00:39:57.443Z,12.27
2022-10-08T00:41:01.731Z,12.27
2022-10-08T00:42:06.090Z,12.28
2022-10-08T00:43:10.416Z,12.29
2022-10-08T00:44:14.639Z,12.29
2022-10-08T00:45:19.043Z,12.30
2022-10-08T00:46:23.481Z,12.31
2022-10-08T00:47:27.657Z,12.31
2022-10-08T00:48:31.997Z,12.31
2022-10-08T00:49:36.400Z,12.31
2022-10-08T00:50:40.572Z,12.32
2022-10-08T00:51:44.893Z,12.32
2022-10-08T00:52:49.823Z,12.32
2022-10-08T00:53:53.509Z,12.32
2022-10-08T00:54:57.742Z,12.31
2022-10-08T00:56:02.117Z,12.31
2022-10-08T00:57:06.236Z,12.31
2022-10-08T00:58:10.683Z,12.30
2022-10-08T00:59:15.004Z,12.30
2022-10-08T01:00:19.197Z,12.30
2022-10-08T01:01:23.613Z,12.30
2022-10-08T01:02:27.889Z,12.29
2022-10-08T01:03:32.175Z,12.29
2022-10-08T01:04:36.454Z,12.28
2022-10-08T01:05:40.622Z,12.28
2022-10-08T01:06:45.054Z,12.28
2022-10-08T01:07:49.238Z,12.28
2022-10-08T01:08:53.663Z,12.27
2022-10-08T01:09:57.989Z,12.27
2022-10-08T01:11:02.194Z,12.26
2022-10-08T01:12:06.479Z,12.25
2022-10-08T01:13:10.761Z,12.25
2022-10-08T01:14:15.042Z,12.24
2022-10-08T01:15:19.458Z,12.24
2022-10-08T01:16:23.788Z,12.24
2022-10-08T01:17:28.000Z,12.23
2022-10-08T01:18:32.240Z,12.23
2022-10-08T01:19:36.623Z,12.23
2022-10-08T01:20:40.851Z,12.23
2022-10-08T01:21:45.053Z,12.22
2022-10-08T01:22:49.867Z,12.22
2022-10-08T01:23:53.780Z,12.21
2022-10-08T01:24:58.021Z,12.20
2022-10-08T01:26:02.325Z,12.19
2022-10-08T01:27:06.676Z,12.18
2022-10-08T01:28:11.085Z,12.16
2022-10-08T01:29:15.214Z,12.16
2022-10-08T01:30:19.571Z,12.14
2022-10-08T01:31:23.977Z,12.13
2022-10-08T01:32:28.131Z,12.12
2022-10-08T01:33:32.330Z,12.11
2022-10-08T01:34:36.679Z,12.11
2022-10-08T01:35:40.949Z,12.10
2022-10-08T01:36:45.433Z,12.10
2022-10-08T01:37:49.691Z,12.09
2022-10-08T01:38:54.104Z,12.09
2022-10-08T01:39:58.373Z,12.09
2022-10-08T01:41:02.625Z,12.09
2022-10-08T01:42:06.961Z,12.09
2022-10-08T01:43:11.366Z,12.09
2022-10-08T01:44:15.537Z,12.09
2022-10-08T01:45:19.754Z,12.10
2022-10-08T01:46:24.101Z,12.09
2022-10-08T01:47:28.429Z,12.09
2022-10-08T01:48:32.734Z,12.09
2022-10-08T01:49:37.057Z,12.09
2022-10-08T01:50:41.286Z,12.08
2022-10-08T01:51:45.643Z,12.07
2022-10-08T01:52:50.198Z,12.07
2022-10-08T01:53:54.144Z,12.07
2022-10-08T01:54:58.502Z,12.06
2022-10-08T01:56:02.829Z,12.06
2022-10-08T01:57:07.021Z,12.06
2022-10-08T01:58:11.356Z,12.05
2022-10-08T01:59:15.600Z,12.04
2022-10-08T02:00:19.945Z,12.02
2022-10-08T02:01:24.287Z,12.01
2022-10-08T02:02:28.584Z,11.98
2022-10-08T02:03:32.804Z,11.95
2022-10-08T02:04:37.182Z,11.93
2022-10-08T02:05:41.382Z,11.92
2022-10-08T02:06:45.641Z,11.92
2022-10-08T02:07:49.985Z,11.92
2022-10-08T02:08:54.323Z,11.92
2022-10-08T02:09:58.688Z,11.91
2022-10-08T02:11:02.847Z,11.91
2022-10-08T02:12:07.147Z,11.91
2022-10-08T02:13:11.500Z,11.90
2022-10-08T02:14:15.672Z,11.90
2022-10-08T02:15:20.157Z,11.90
2022-10-08T02:16:24.386Z,11.90
2022-10-08T02:17:28.620Z,11.89
2022-10-08T02:18:32.858Z,11.89
2022-10-08T02:19:37.070Z,11.88
2022-10-08T02:20:41.466Z,11.87
2022-10-08T02:21:45.689Z,11.87
2022-10-08T02:22:50.027Z,11.86
2022-10-08T02:23:54.301Z,11.85
2022-10-08T02:24:58.523Z,11.84
2022-10-08T02:26:02.859Z,11.83
2022-10-08T02:27:07.099Z,11.83
2022-10-08T02:28:11.414Z,11.83
2022-10-08T02:29:15.676Z,11.83
2022-10-08T02:30:20.008Z,11.83
2022-10-08T02:31:24.452Z,11.83
2022-10-08T02:32:28.622Z,11.83
2022-10-08T02:33:32.835Z,11.82
2022-10-08T02:34:37.083Z,11.83
2022-10-08T02:35:41.433Z,11.83
2022-10-08T02:36:45.678Z,11.83
2022-10-08T02:37:49.956Z,11.84
2022-10-08T02:38:54.289Z,11.84
2022-10-08T02:39:58.530Z,11.84
2022-10-08T02:41:02.938Z,11.84
2022-10-08T02:42:07.316Z,11.83
2022-10-08T02:43:11.524Z,11.83
2022-10-08T02:44:15.885Z,11.83
2022-10-08T02:45:20.117Z,11.82
2022-10-08T02:46:25.339Z,11.82
2022-10-08T02:47:29.265Z,11.81
2022-10-08T02:48:33.597Z,11.80
2022-10-08T02:49:37.933Z,11.79
2022-10-08T02:50:42.179Z,11.78
2022-10-08T02:51:46.510Z,11.78
2022-10-08T02:52:50.935Z,11.78
2022-10-08T02:53:55.124Z,11.78
2022-10-08T02:54:59.383Z,11.77
2022-10-08T02:56:03.744Z,11.77
2022-10-08T02:57:09.662Z,11.76
2022-10-08T02:58:12.211Z,11.76
2022-10-08T02:59:19.647Z,11.75
2022-10-08T03:00:23.025Z,11.75
2022-10-08T03:01:27.260Z,11.75
2022-10-08T03:02:31.775Z,11.73
2022-10-08T03:03:35.993Z,11.73
2022-10-08T03:04:40.339Z,11.73
2022-10-08T03:05:44.566Z,11.73
2022-10-08T03:06:48.807Z,11.73
2022-10-08T03:07:53.194Z,11.72
2022-10-08T03:08:57.493Z,11.72
2022-10-08T03:10:01.678Z,11.72
2022-10-08T03:11:06.011Z,11.72
2022-10-08T03:12:10.351Z,11.72
2022-10-08T03:13:14.600Z,11.72
2022-10-08T03:14:18.910Z,11.71
2022-10-08T03:15:23.162Z,11.71
2022-10-08T03:16:27.514Z,11.71
2022-10-08T03:17:31.911Z,11.72
2022-10-08T03:18:36.165Z,11.72
2022-10-08T03:19:40.438Z,11.72
2022-10-08T03:20:44.787Z,11.72
2022-10-08T03:21:49.118Z,11.73
2022-10-08T03:22:53.428Z,11.73
2022-10-08T03:23:57.708Z,11.73
2022-10-08T03:25:01.991Z,11.73
2022-10-08T03:26:06.378Z,11.73
2022-10-08T03:27:10.661Z,11.72
2022-10-08T03:28:15.024Z,11.72
2022-10-08T03:29:19.246Z,11.71
2022-10-08T03:30:23.494Z,11.71
2022-10-08T03:31:27.845Z,11.71
2022-10-08T03:32:32.142Z,11.71
2022-10-08T03:33:36.496Z,11.70
2022-10-08T03:34:40.846Z,11.70
2022-10-08T03:35:45.156Z,11.70
2022-10-08T03:36:49.469Z,11.70
2022-10-08T03:37:53.792Z,11.70
2022-10-08T03:38:58.087Z,11.70
2022-10-08T03:40:02.335Z,11.69
2022-10-08T03:41:06.647Z,11.69
2022-10-08T03:42:10.880Z,11.68
2022-10-08T03:43:15.350Z,11.68
2022-10-08T03:44:19.540Z,11.67
2022-10-08T03:45:23.903Z,11.66
2022-10-08T03:46:28.324Z,11.65
2022-10-08T03:47:32.576Z,11.65
2022-10-08T03:48:36.863Z,11.65
2022-10-08T03:49:41.150Z,11.66
2022-10-08T03:50:45.374Z,11.66
2022-10-08T03:51:49.704Z,11.67
2022-10-08T03:52:53.905Z,11.67
2022-10-08T03:53:58.268Z,11.67
2022-10-08T03:55:02.585Z,11.67
2022-10-08T03:56:06.895Z,11.67
2022-10-08T03:57:11.241Z,11.68
2022-10-08T03:58:15.485Z,11.69
2022-10-08T03:59:19.838Z,11.70
2022-10-08T04:00:24.091Z,11.70
2022-10-08T04:01:28.543Z,11.71
2022-10-08T04:02:32.786Z,11.72
2022-10-08T04:03:36.940Z,11.72
2022-10-08T04:04:41.359Z,11.73
2022-10-08T04:05:45.595Z,11.73
2022-10-08T04:06:49.945Z,11.74
2022-10-08T04:07:54.372Z,11.74
2022-10-08T04:08:58.541Z,11.75
2022-10-08T04:10:02.804Z,11.75
2022-10-08T04:11:07.172Z,11.75
2022-10-08T04:12:11.492Z,11.76
2022-10-08T04:13:15.787Z,11.75
2022-10-08T04:14:20.094Z,11.75
2022-10-08T04:15:24.486Z,11.76
2022-10-08T04:16:28.774Z,11.76
2022-10-08T04:17:33.058Z,11.77
2022-10-08T04:18:37.382Z,11.77
2022-10-08T04:19:41.725Z,11.78
2022-10-08T04:20:46.023Z,11.79
2022-10-08T04:21:50.335Z,11.80
2022-10-08T04:22:54.583Z,11.81
2022-10-08T04:23:59.019Z,11.82
2022-10-08T04:25:03.328Z,11.82
2022-10-08T04:26:07.528Z,11.83
2022-10-08T04:27:11.901Z,11.83
2022-10-08T04:28:16.216Z,11.83
2022-10-08T04:29:20.488Z,11.83
2022-10-08T04:30:24.728Z,11.83
2022-10-08T04:31:28.980Z,11.82
2022-10-08T04:32:33.415Z,11.82
2022-10-08T04:33:37.655Z,11.81
2022-10-08T04:34:41.833Z,11.80
2022-10-08T04:35:46.106Z,11.79
2022-10-08T04:36:50.563Z,11.78
2022-10-08T04:37:54.962Z,11.77
2022-10-08T04:38:59.212Z,11.77
2022-10-08T04:40:03.517Z,11.76
2022-10-08T04:41:07.952Z,11.76
2022-10-08T04:42:12.209Z,11.75
2022-10-08T04:43:16.508Z,11.74
2022-10-08T04:44:20.821Z,11.74
2022-10-08T04:45:25.139Z,11.73
2022-10-08T04:46:29.609Z,11.72
2022-10-08T04:47:33.666Z,11.72
2022-10-08T04:48:38.052Z,11.71
2022-10-08T04:49:42.368Z,11.71
2022-10-08T04:50:46.705Z,11.70
2022-10-08T04:51:51.029Z,11.69
2022-10-08T04:52:55.424Z,11.69
2022-10-08T04:53:59.740Z,11.68
2022-10-08T04:55:04.047Z,11.68
2022-10-08T04:56:08.377Z,11.67
2022-10-08T04:57:12.603Z,11.66
2022-10-08T04:58:16.959Z,11.66
2022-10-08T04:59:21.280Z,11.64
2022-10-08T05:00:25.592Z,11.63
2022-10-08T05:01:30.048Z,11.63
2022-10-08T05:02:34.204Z,11.62
2022-10-08T05:03:38.529Z,11.61
2022-10-08T05:04:42.803Z,11.61
2022-10-08T05:05:47.134Z,11.60
2022-10-08T05:06:51.461Z,11.59
2022-10-08T05:07:55.725Z,11.58
2022-10-08T05:08:59.969Z,11.57
2022-10-08T05:10:04.215Z,11.56
2022-10-08T05:11:08.479Z,11.56
2022-10-08T05:12:12.810Z,11.55
2022-10-08T05:13:17.218Z,11.55
2022-10-08T05:14:21.396Z,11.54
2022-10-08T05:15:25.786Z,11.53
2022-10-08T05:16:30.102Z,11.53
2022-10-08T05:17:34.394Z,11.52
2022-10-08T05:18:38.708Z,11.51
2022-10-08T05:19:42.988Z,11.50
2022-10-08T05:20:47.241Z,11.49
2022-10-08T05:21:51.532Z,11.49
2022-10-08T05:22:55.842Z,11.49
2022-10-08T05:24:00.085Z,11.49
2022-10-08T05:25:04.455Z,11.49
2022-10-08T05:26:08.768Z,11.49
2022-10-08T05:27:13.044Z,11.48
2022-10-08T05:28:17.431Z,11.48
2022-10-08T05:29:21.747Z,11.48
2022-10-08T05:30:25.990Z,11.48
2022-10-08T05:31:30.353Z,11.47
2022-10-08T05:32:34.441Z,11.47
2022-10-08T05:33:38.821Z,11.48
2022-10-08T05:34:43.157Z,11.48
2022-10-08T05:35:47.502Z,11.48
2022-10-08T05:36:51.822Z,11.49
2022-10-08T05:37:56.023Z,11.49
2022-10-08T05:39:00.460Z,11.49
2022-10-08T05:40:04.707Z,11.50
2022-10-08T05:41:09.039Z,11.52
2022-10-08T05:42:13.470Z,11.52
2022-10-08T05:43:17.720Z,11.53
2022-10-08T05:44:21.935Z,11.53
2022-10-08T05:45:26.312Z,11.55
2022-10-08T05:46:30.690Z,11.56
2022-10-08T05:47:34.877Z,11.59
2022-10-08T05:48:39.206Z,11.60
2022-10-08T05:49:43.353Z,11.62
2022-10-08T05:50:47.801Z,11.64
2022-10-08T05:51:52.147Z,11.66
2022-10-08T05:52:56.366Z,11.68
2022-10-08T05:54:00.732Z,11.69
2022-10-08T05:55:04.999Z,11.70
2022-10-08T05:56:09.294Z,11.71
2022-10-08T05:57:13.625Z,11.72
2022-10-08T05:58:17.856Z,11.73
2022-10-08T05:59:22.165Z,11.73
2022-10-08T06:00:26.519Z,11.73
2022-10-08T06:01:30.812Z,11.74
2022-10-08T06:02:35.100Z,11.75
2022-10-08T06:03:39.490Z,11.76
2022-10-08T06:04:43.725Z,11.76
2022-10-08T06:05:48.044Z,11.77
2022-10-08T06:06:52.258Z,11.78
2022-10-08T06:07:56.586Z,11.78
2022-10-08T06:09:00.924Z,11.78
2022-10-08T06:10:05.107Z,11.79
2022-10-08T06:11:09.473Z,11.79
2022-10-08T06:12:13.766Z,11.80
2022-10-08T06:13:18.080Z,11.80
2022-10-08T06:14:22.388Z,11.79
2022-10-08T06:15:26.689Z,11.79
2022-10-08T06:16:31.087Z,11.79
2022-10-08T06:17:35.252Z,11.79
2022-10-08T06:18:39.621Z,11.80
2022-10-08T06:19:43.930Z,11.81
2022-10-08T06:20:48.226Z,11.82
2022-10-08T06:21:52.551Z,11.82
2022-10-08T06:22:56.864Z,11.83
2022-10-08T06:24:01.155Z,11.83
2022-10-08T06:25:05.451Z,11.84
2022-10-08T06:26:09.738Z,11.85
2022-10-08T06:27:14.057Z,11.86
2022-10-08T06:28:18.334Z,11.87
2022-10-08T06:29:22.618Z,11.87
2022-10-08T06:30:26.952Z,11.88
2022-10-08T06:31:31.192Z,11.88
2022-10-08T06:32:35.509Z,11.88
2022-10-08T06:33:39.950Z,11.88
2022-10-08T06:34:44.143Z,11.89
2022-10-08T06:35:48.488Z,11.90
2022-10-08T06:36:52.905Z,11.91
2022-10-08T06:37:57.292Z,11.92
2022-10-08T06:39:01.566Z,11.92
2022-10-08T06:40:05.900Z,11.93
2022-10-08T06:41:10.262Z,11.93
2022-10-08T06:42:14.555Z,11.93
2022-10-08T06:43:18.853Z,11.94
2022-10-08T06:44:23.259Z,11.94
2022-10-08T06:45:27.448Z,11.94
2022-10-08T06:46:31.783Z,11.95
2022-10-08T06:47:36.176Z,11.95
2022-10-08T06:48:40.397Z,11.96
2022-10-08T06:49:44.854Z,11.97
2022-10-08T06:50:49.127Z,11.98
2022-10-08T06:51:53.460Z,11.98
2022-10-08T06:52:57.693Z,11.98
2022-10-08T06:54:07.288Z,11.99
2022-10-08T06:55:06.410Z,11.99
2022-10-08T06:56:10.768Z,12.00
2022-10-08T06:57:15.161Z,12.01
2022-10-08T06:58:19.314Z,12.01
2022-10-08T06:59:23.622Z,12.02
2022-10-08T07:00:27.966Z,12.03
2022-10-08T07:01:34.170Z,12.04
2022-10-08T07:02:36.596Z,12.04
2022-10-08T07:03:40.833Z,12.05
2022-10-08T07:04:45.073Z,12.06
2022-10-08T07:05:49.438Z,12.07
2022-10-08T07:06:53.690Z,12.08
2022-10-08T07:07:58.129Z,12.09
2022-10-08T07:09:02.328Z,12.10
2022-10-08T07:10:06.657Z,12.11
2022-10-08T07:11:11.083Z,12.12
2022-10-08T07:12:15.401Z,12.13
2022-10-08T07:13:19.739Z,12.14
2022-10-08T07:14:23.844Z,12.15
2022-10-08T07:15:28.237Z,12.16
2022-10-08T07:16:32.692Z,12.17
2022-10-08T07:17:36.835Z,12.19
2022-10-08T07:18:41.170Z,12.19
2022-10-08T07:19:45.467Z,12.21
2022-10-08T07:20:49.797Z,12.22
2022-10-08T07:21:56.808Z,12.24
2022-10-08T07:22:58.392Z,12.27
2022-10-08T07:24:02.809Z,12.28
2022-10-08T07:25:07.003Z,12.30
2022-10-08T07:26:11.366Z,12.32
2022-10-08T07:27:15.685Z,12.33
2022-10-08T07:28:20.055Z,12.35
2022-10-08T07:29:24.328Z,12.37
2022-10-08T07:30:28.608Z,12.40
2022-10-08T07:31:32.893Z,12.42
2022-10-08T07:32:37.112Z,12.43
2022-10-08T07:33:41.487Z,12.45
2022-10-08T07:34:45.719Z,12.48
2022-10-08T07:35:50.075Z,12.51
2022-10-08T07:36:54.394Z,12.55
2022-10-08T07:37:58.735Z,12.57
2022-10-08T07:39:03.062Z,12.59
2022-10-08T07:40:07.311Z,12.60
2022-10-08T07:41:11.787Z,12.62
2022-10-08T07:42:16.042Z,12.65
2022-10-08T07:43:20.352Z,12.67
2022-10-08T07:44:24.643Z,12.70
2022-10-08T07:45:29.069Z,12.73
2022-10-08T07:46:33.291Z,12.74
2022-10-08T07:47:37.630Z,12.77
2022-10-08T07:48:41.859Z,12.80
2022-10-08T07:49:46.242Z,12.83
2022-10-08T07:50:50.478Z,12.86
2022-10-08T07:51:54.857Z,12.89
2022-10-08T07:52:59.167Z,12.91
2022-10-08T07:54:03.584Z,12.94
2022-10-08T07:55:07.867Z,12.96
2022-10-08T07:56:12.012Z,12.98
2022-10-08T07:57:16.405Z,13.01
2022-10-08T07:58:20.638Z,13.03
2022-10-08T07:59:25.006Z,13.05
2022-10-08T08:00:29.356Z,13.08
2022-10-08T08:01:33.739Z,13.10
2022-10-08T08:02:38.022Z,13.13
2022-10-08T08:03:42.329Z,13.16
2022-10-08T08:04:46.582Z,13.19
2022-10-08T08:05:50.804Z,13.22
2022-10-08T08:06:55.319Z,13.25
2022-10-08T08:07:59.609Z,13.28
2022-10-08T08:09:03.848Z,13.32
2022-10-08T08:10:08.023Z,13.34
2022-10-08T08:11:12.385Z,13.38
2022-10-08T08:12:16.825Z,13.41
2022-10-08T08:13:21.211Z,13.45
2022-10-08T08:14:25.590Z,13.48
2022-10-08T08:15:29.879Z,13.50
2022-10-08T08:16:34.197Z,13.52
2022-10-08T08:17:38.490Z,13.53
2022-10-08T08:18:42.771Z,13.54
2022-10-08T08:19:47.065Z,13.54
2022-10-08T08:20:51.399Z,13.54
2022-10-08T08:21:55.712Z,13.54
2022-10-08T08:23:00.058Z,13.55
2022-10-08T08:24:04.375Z,13.56
2022-10-08T08:25:08.614Z,13.57
2022-10-08T08:26:13.052Z,13.58
2022-10-08T08:27:17.341Z,13.58
2022-10-08T08:28:21.746Z,13.59
2022-10-08T08:29:25.898Z,13.59
2022-10-08T08:30:30.101Z,13.57
2022-10-08T08:31:34.627Z,13.57
2022-10-08T08:32:38.861Z,13.56
2022-10-08T08:33:43.228Z,13.56
2022-10-08T08:34:47.439Z,13.56
2022-10-08T08:35:51.792Z,13.55
2022-10-08T08:36:56.129Z,13.54
2022-10-08T08:38:00.464Z,13.53
2022-10-08T08:39:04.719Z,13.53
2022-10-08T08:40:09.092Z,13.53
2022-10-08T08:41:16.423Z,13.53
2022-10-08T08:42:17.726Z,13.54
2022-10-08T08:43:22.088Z,13.55
2022-10-08T08:44:26.404Z,13.54
2022-10-08T08:45:47.420Z,13.52
2022-10-08T08:46:35.222Z,13.51
2022-10-08T08:47:39.451Z,13.50
2022-10-08T08:48:43.716Z,13.51
2022-10-08T08:49:48.098Z,13.51
2022-10-08T08:50:52.308Z,13.52
2022-10-08T08:51:56.810Z,13.53
2022-10-08T08:53:01.088Z,13.54
2022-10-08T08:54:05.449Z,13.53
2022-10-08T08:55:09.699Z,13.53
2022-10-08T08:56:14.036Z,13.54
2022-10-08T08:57:18.381Z,13.54
2022-10-08T08:58:22.617Z,13.54
2022-10-08T08:59:26.869Z,13.53
2022-10-08T09:00:31.254Z,13.53
2022-10-08T09:01:35.804Z,13.53
2022-10-08T09:02:39.947Z,13.50
2022-10-08T09:03:44.293Z,13.48
2022-10-08T09:04:48.527Z,13.46
2022-10-08T09:05:53.017Z,13.47
2022-10-08T09:06:57.256Z,13.48
2022-10-08T09:08:01.516Z,13.51
2022-10-08T09:09:05.877Z,13.53
2022-10-08T09:10:10.192Z,13.56
2022-10-08T09:11:14.527Z,13.59
2022-10-08T09:12:21.029Z,13.61
2022-10-08T09:13:23.172Z,13.63
2022-10-08T09:14:27.483Z,13.65
2022-10-08T09:15:31.832Z,13.67
2022-10-08T09:16:36.334Z,13.70
2022-10-08T09:17:40.588Z,13.73
2022-10-08T09:18:44.934Z,13.75
2022-10-08T09:19:49.266Z,13.79
2022-10-08T09:20:53.605Z,13.83
2022-10-08T09:21:57.862Z,13.86
2022-10-08T09:23:02.212Z,13.89
2022-10-08T09:24:06.553Z,13.92
2022-10-08T09:25:10.916Z,13.97
2022-10-08T09:26:15.192Z,14.02
2022-10-08T09:27:19.585Z,14.08
2022-10-08T09:28:23.960Z,14.13
2022-10-08T09:29:28.248Z,14.19
2022-10-08T09:30:32.661Z,14.24
2022-10-08T09:31:37.081Z,14.29
2022-10-08T09:32:41.398Z,14.35
2022-10-08T09:33:45.784Z,14.40
2022-10-08T09:34:50.127Z,14.45
2022-10-08T09:35:54.563Z,14.48
2022-10-08T09:36:58.890Z,14.50
2022-10-08T09:38:05.930Z,14.52
2022-10-08T09:39:07.552Z,14.54
2022-10-08T09:40:11.979Z,14.57
2022-10-08T09:41:16.167Z,14.61
2022-10-08T09:42:20.595Z,14.65
2022-10-08T09:43:24.939Z,14.70
2022-10-08T09:44:29.291Z,14.74
2022-10-08T09:45:33.541Z,14.77
2022-10-08T09:46:37.966Z,14.79
2022-10-08T09:47:42.247Z,14.81
2022-10-08T09:48:46.689Z,14.83
2022-10-08T09:49:50.931Z,14.84
2022-10-08T09:50:55.361Z,14.84
2022-10-08T09:51:59.742Z,14.85
2022-10-08T09:53:04.089Z,14.87
2022-10-08T09:54:08.458Z,14.89
2022-10-08T09:55:12.725Z,14.92
2022-10-08T09:56:17.205Z,14.94
2022-10-08T09:57:21.529Z,14.94
2022-10-08T09:58:25.865Z,14.95
2022-10-08T09:59:30.325Z,14.96
2022-10-08T10:00:34.605Z,14.99
2022-10-08T10:01:39.020Z,15.01
2022-10-08T10:02:43.235Z,15.01
2022-10-08T10:03:47.675Z,14.99
2022-10-08T10:04:51.927Z,14.99
2022-10-08T10:05:56.357Z,14.99
2022-10-08T10:07:00.678Z,15.00
2022-10-08T10:08:05.023Z,15.04
2022-10-08T10:09:09.336Z,15.09
2022-10-08T10:10:13.720Z,15.13
2022-10-08T10:11:18.054Z,15.17
2022-10-08T10:12:22.416Z,15.21
2022-10-08T10:13:26.679Z,15.24
2022-10-08T10:14:31.069Z,15.25
2022-10-08T10:15:35.385Z,15.27
2022-10-08T10:16:39.732Z,15.30
2022-10-08T10:17:43.976Z,15.32
2022-10-08T10:18:48.321Z,15.35
2022-10-08T10:19:52.722Z,15.36
2022-10-08T10:20:57.016Z,15.38
2022-10-08T10:22:01.454Z,15.42
2022-10-08T10:23:05.700Z,15.44
2022-10-08T10:24:10.006Z,15.46
2022-10-08T10:25:14.383Z,15.49
2022-10-08T10:26:18.768Z,15.52
2022-10-08T10:27:23.069Z,15.55
2022-10-08T10:28:30.494Z,15.60
2022-10-08T10:29:33.989Z,15.65
2022-10-08T10:30:38.295Z,15.68
2022-10-08T10:31:42.619Z,15.71
2022-10-08T10:32:47.092Z,15.75
2022-10-08T10:33:51.270Z,15.80
2022-10-08T10:34:55.551Z,15.84
2022-10-08T10:35:59.932Z,15.87
2022-10-08T10:37:04.288Z,15.89
2022-10-08T10:38:08.586Z,15.91
2022-10-08T10:39:12.908Z,15.94
2022-10-08T10:40:17.270Z,15.95
2022-10-08T10:41:21.460Z,15.94
2022-10-08T10:42:25.977Z,15.95
2022-10-08T10:43:30.219Z,15.96
2022-10-08T10:44:34.633Z,15.98
2022-10-08T10:45:39.068Z,16.01
2022-10-08T10:46:43.259Z,16.05
2022-10-08T10:47:47.687Z,16.08
2022-10-08T10:48:52.159Z,16.10
2022-10-08T10:49:56.444Z,16.12
2022-10-08T10:51:00.800Z,16.12
2022-10-08T10:52:05.113Z,16.13
2022-10-08T10:53:09.582Z,16.14
2022-10-08T10:54:13.878Z,16.16
2022-10-08T10:55:18.242Z,16.18
2022-10-08T10:56:22.499Z,16.22
2022-10-08T10:57:26.909Z,16.26
2022-10-08T10:58:31.168Z,16.30
2022-10-08T10:59:35.517Z,16.36
2022-10-08T11:00:39.874Z,16.43
2022-10-08T11:01:44.317Z,16.50
2022-10-08T11:02:48.993Z,16.56
2022-10-08T11:03:52.981Z,16.61
2022-10-08T11:05:01.547Z,16.62
2022-10-08T11:06:01.719Z,16.62
2022-10-08T11:07:06.079Z,16.64
2022-10-08T11:08:10.464Z,16.69
2022-10-08T11:09:14.729Z,16.74
2022-10-08T11:10:19.098Z,16.78
2022-10-08T11:11:23.483Z,16.80
2022-10-08T11:12:27.769Z,16.79
2022-10-08T11:13:32.216Z,16.77
2022-10-08T11:14:36.454Z,16.74
2022-10-08T11:15:40.959Z,16.70
2022-10-08T11:16:45.341Z,16.67
2022-10-08T11:17:49.702Z,16.65
2022-10-08T11:18:54.063Z,16.62
2022-10-08T11:19:58.356Z,16.60
2022-10-08T11:21:02.767Z,16.57
2022-10-08T11:22:07.194Z,16.54
2022-10-08T11:23:11.541Z,16.50
2022-10-08T11:24:15.888Z,16.37
2022-10-08T11:25:20.135Z,16.12
2022-10-08T11:26:24.458Z,15.88
2022-10-08T11:27:28.818Z,15.67
2022-10-08T11:28:39.226Z,15.49
2022-10-08T11:29:42.077Z,15.33
2022-10-08T11:30:46.353Z,15.19
2022-10-08T11:31:50.664Z,15.07
2022-10-08T11:32:54.990Z,14.93
2022-10-08T11:33:59.370Z,14.83
2022-10-08T11:35:03.702Z,14.76
2022-10-08T11:36:08.133Z,14.66
2022-10-08T11:37:12.500Z,14.59
2022-10-08T11:38:16.772Z,14.53
2022-10-08T11:39:21.148Z,14.48
2022-10-08T11:40:25.363Z,14.45
2022-10-08T11:41:29.748Z,14.40
2022-10-08T11:42:48.191Z,14.33
2022-10-08T11:43:38.424Z,14.27
2022-10-08T11:44:42.696Z,14.25
2022-10-08T11:45:47.044Z,14.22
2022-10-08T11:46:51.357Z,14.21
2022-10-08T11:47:55.706Z,14.23
2022-10-08T11:49:00.066Z,14.26
2022-10-08T11:50:04.430Z,14.27
2022-10-08T11:51:08.734Z,14.28
2022-10-08T11:52:12.994Z,14.27
2022-10-08T11:53:17.365Z,14.26
2022-10-08T11:54:21.779Z,14.25
2022-10-08T11:55:26.190Z,14.26
2022-10-08T11:56:30.492Z,14.26
2022-10-08T11:58:02.916Z,14.26
2022-10-08T11:58:39.072Z,14.27
2022-10-08T11:59:43.501Z,14.28
2022-10-08T12:00:47.690Z,14.30
2022-10-08T12:01:51.904Z,14.32
2022-10-08T12:02:56.433Z,14.34
2022-10-08T12:04:00.645Z,14.35
2022-10-08T12:05:04.930Z,14.37
2022-10-08T12:06:09.220Z,14.38
2022-10-08T12:07:13.594Z,14.38
2022-10-08T12:08:17.940Z,14.37
2022-10-08T12:09:22.231Z,14.37
2022-10-08T12:10:26.628Z,14.37
2022-10-08T12:11:30.952Z,14.37
2022-10-08T12:12:35.316Z,14.35
2022-10-08T12:13:39.563Z,14.35
2022-10-08T12:14:43.943Z,14.34
2022-10-08T12:15:48.474Z,14.33
2022-10-08T12:16:52.740Z,14.34
2022-10-08T12:17:56.894Z,14.35
2022-10-08T12:19:01.390Z,14.36
2022-10-08T12:20:05.704Z,14.37
2022-10-08T12:21:10.047Z,14.37
2022-10-08T12:22:14.397Z,14.38
2022-10-08T12:23:18.736Z,14.43
2022-10-08T12:24:23.104Z,14.54
2022-10-08T12:25:27.441Z,14.73
2022-10-08T12:26:31.717Z,14.95
2022-10-08T12:27:36.036Z,15.22
2022-10-08T12:28:40.473Z,15.47
2022-10-08T12:29:44.692Z,15.71
2022-10-08T12:30:49.113Z,15.92
2022-10-08T12:31:53.448Z,16.12
2022-10-08T12:32:57.791Z,16.29
2022-10-08T12:34:02.096Z,16.45
2022-10-08T12:35:06.528Z,16.61
2022-10-08T12:36:10.884Z,16.76
2022-10-08T12:37:16.708Z,16.88
2022-10-08T12:38:19.707Z,17.00
2022-10-08T12:39:23.967Z,17.14
2022-10-08T12:40:42.436Z,17.28
2022-10-08T12:41:45.694Z,17.42
2022-10-08T12:42:50.061Z,17.54
2022-10-08T12:43:54.314Z,17.69
2022-10-08T12:44:58.727Z,17.81
2022-10-08T12:46:03.210Z,17.92
2022-10-08T12:47:07.602Z,18.02
2022-10-08T12:48:11.898Z,18.12
2022-10-08T12:49:16.298Z,18.21
2022-10-08T12:50:20.674Z,18.30
2022-10-08T12:51:24.961Z,18.33
2022-10-08T12:52:29.405Z,18.38
2022-10-08T12:53:33.720Z,18.43
2022-10-08T12:54:38.167Z,18.47
2022-10-08T12:55:42.553Z,18.53
2022-10-08T12:56:46.927Z,18.57
2022-10-08T12:57:51.366Z,18.61
2022-10-08T12:58:55.561Z,18.64
2022-10-08T13:00:00.053Z,18.67
2022-10-08T13:01:04.493Z,18.65
2022-10-08T13:02:08.800Z,18.67
2022-10-08T13:03:13.056Z,18.70
2022-10-08T13:04:17.408Z,18.74
2022-10-08T13:05:21.719Z,18.77
2022-10-08T13:06:29.245Z,18.81
2022-10-08T13:07:30.431Z,18.81
2022-10-08T13:08:34.762Z,18.79
2022-10-08T13:09:39.165Z,18.79
2022-10-08T13:10:43.441Z,18.81
2022-10-08T13:11:52.139Z,18.82
2022-10-08T13:12:52.184Z,18.80
2022-10-08T13:13:56.609Z,18.81
2022-10-08T13:15:01.007Z,18.82
2022-10-08T13:16:05.457Z,18.82
2022-10-08T13:17:09.702Z,18.83
2022-10-08T13:18:13.992Z,18.83
2022-10-08T13:19:18.337Z,18.83
2022-10-08T13:20:22.681Z,18.82
2022-10-08T13:21:26.982Z,18.82
2022-10-08T13:22:31.401Z,18.80
2022-10-08T13:23:35.787Z,18.72
2022-10-08T13:24:40.073Z,18.63
2022-10-08T13:25:44.511Z,18.56
2022-10-08T13:26:48.866Z,18.50
2022-10-08T13:27:53.174Z,18.35
2022-10-08T13:29:00.698Z,18.15
2022-10-08T13:30:01.949Z,17.98
2022-10-08T13:31:06.349Z,17.83
2022-10-08T13:32:10.589Z,17.65
2022-10-08T13:33:14.991Z,17.49
2022-10-08T13:34:19.313Z,17.39
2022-10-08T13:35:23.771Z,17.32
2022-10-08T13:36:28.149Z,17.27
2022-10-08T13:37:32.377Z,17.21
2022-10-08T13:38:36.781Z,17.16
2022-10-08T13:39:41.168Z,17.10
2022-10-08T13:40:45.492Z,17.03
2022-10-08T13:41:52.371Z,17.00
2022-10-08T13:42:54.190Z,16.99
2022-10-08T13:43:58.537Z,16.99
2022-10-08T13:45:02.853Z,17.00
2022-10-08T13:46:07.260Z,17.00
2022-10-08T13:47:11.658Z,16.98
2022-10-08T13:48:15.954Z,16.93